Time;durP1;ratioP1;P1;durP2;ratioP2;P2;SDS_P1;SDS_P2;PMS_P1;PMS_P2;Temp;Humidity;BMP_temperature;BMP_pressure;BME280_temperature;BME280_humidity;BME280_pressure;Samples;Min_cycle;Max_cycle;Signal;HPM_P1;HPM_P2
2022/05/21 00:00:41;;;;;;;6.78;5.00;;;;;;;10.38;100.00;101062.13;5030154;28;20168;-45
2022/05/21 00:03:09;;;;;;;7.13;4.53;;;;;;;10.34;100.00;101059.63;5029962;28;20210;-46
2022/05/21 00:05:35;;;;;;;9.77;4.80;;;;;;;10.19;100.00;101077.03;5030059;28;20191;-48
2022/05/21 00:08:03;;;;;;;5.15;4.10;;;;;;;10.22;100.00;101090.34;5030610;28;20561;-46
2022/05/21 00:10:30;;;;;;;8.45;4.78;;;;;;;10.22;100.00;101101.03;5030137;28;20168;-47
2022/05/21 00:12:56;;;;;;;8.60;4.45;;;;;;;10.23;100.00;101103.69;5030314;28;20200;-47
2022/05/21 00:15:24;;;;;;;6.15;4.80;;;;;;;10.25;100.00;101101.78;5030079;28;20602;-45
2022/05/21 00:17:50;;;;;;;8.52;5.32;;;;;;;10.25;100.00;101100.94;5030438;28;20199;-49
2022/05/21 00:23:09;;;;;;;6.35;5.00;;;;;;;10.46;100.00;101120.81;5029300;28;20721;-48
2022/05/21 00:25:34;;;;;;;6.18;5.38;;;;;;;10.38;100.00;101131.78;5030208;28;20240;-48
2022/05/21 00:28:00;;;;;;;7.45;4.75;;;;;;;10.24;100.00;101131.31;5028546;28;20570;-50
2022/05/21 00:30:25;;;;;;;5.85;4.78;;;;;;;10.04;100.00;101151.56;5030264;28;20172;-48
2022/05/21 00:32:51;;;;;;;4.63;3.80;;;;;;;10.14;100.00;101154.81;5029979;28;20191;-48
2022/05/21 00:35:16;;;;;;;7.50;4.30;;;;;;;9.99;100.00;101152.63;5029565;28;20203;-50
2022/05/21 00:37:41;;;;;;;7.25;4.30;;;;;;;10.08;100.00;101153.22;5030045;28;20347;-49
2022/05/21 00:40:07;;;;;;;4.32;3.85;;;;;;;9.90;100.00;101152.00;5030026;28;20208;-49
2022/05/21 00:42:33;;;;;;;3.83;3.03;;;;;;;9.80;100.00;101158.53;5029955;28;20567;-49
2022/05/21 00:44:58;;;;;;;5.07;3.53;;;;;;;9.88;100.00;101158.28;5029552;28;20180;-50
2022/05/21 00:47:23;;;;;;;4.97;3.60;;;;;;;9.94;100.00;101163.47;5028414;28;20210;-48
2022/05/21 00:49:49;;;;;;;4.68;2.80;;;;;;;9.82;100.00;101172.75;5029745;28;20238;-50
2022/05/21 00:52:19;;;;;;;5.25;3.13;;;;;;;9.82;100.00;101180.78;5029677;28;20227;-51
2022/05/21 00:54:48;;;;;;;5.30;2.90;;;;;;;9.88;100.00;101185.97;5029233;28;20203;-46
2022/05/21 00:57:17;;;;;;;4.63;2.70;;;;;;;9.67;100.00;101189.25;5030030;28;20262;-49
2022/05/21 00:59:50;;;;;;;3.95;2.88;;;;;;;9.76;100.00;101199.69;5029500;28;20231;-49
2022/05/21 01:02:20;;;;;;;3.60;2.78;;;;;;;9.63;100.00;101190.25;5029595;28;20215;-48
2022/05/21 01:04:47;;;;;;;5.93;3.17;;;;;;;9.67;100.00;101183.91;5027682;28;20251;-49
2022/05/21 01:07:16;;;;;;;5.18;3.08;;;;;;;9.61;100.00;101178.72;5029918;28;20294;-49
2022/05/21 01:09:51;;;;;;;5.32;3.10;;;;;;;9.63;100.00;101193.81;5029787;28;20176;-48
2022/05/21 01:12:16;;;;;;;5.80;2.80;;;;;;;9.65;100.00;101199.13;5029380;28;20246;-48
2022/05/21 01:14:42;;;;;;;6.03;3.03;;;;;;;9.59;100.00;101201.97;5029446;28;20172;-50
2022/05/21 01:17:08;;;;;;;7.53;2.47;;;;;;;9.55;100.00;101197.63;5029719;28;20172;-48
2022/05/21 01:20:03;;;;;;;4.50;2.63;;;;;;;9.41;100.00;101204.22;5028282;28;20195;-51
2022/05/21 01:22:31;;;;;;;5.15;2.85;;;;;;;9.54;100.00;101203.91;5029516;28;20208;-47
2022/05/21 01:24:57;;;;;;;3.58;2.60;;;;;;;9.59;100.00;101204.63;5028937;28;20187;-47
2022/05/21 01:27:24;;;;;;;2.88;2.38;;;;;;;9.48;100.00;101211.16;5029472;28;20176;-49
2022/05/21 01:29:51;;;;;;;6.55;2.60;;;;;;;9.42;100.00;101214.03;5029399;28;20172;-50
2022/05/21 01:32:18;;;;;;;4.38;2.80;;;;;;;9.41;100.00;101214.06;5029101;28;20192;-48
2022/05/21 01:34:44;;;;;;;4.53;3.08;;;;;;;9.35;100.00;101209.75;5028711;28;20172;-48
2022/05/21 01:37:10;;;;;;;3.08;2.78;;;;;;;9.22;100.00;101213.66;5032236;28;20183;-48
2022/05/21 01:39:35;;;;;;;5.50;2.92;;;;;;;9.31;100.00;101218.75;5032956;28;20219;-46
2022/05/21 01:42:01;;;;;;;6.55;3.80;;;;;;;9.12;100.00;101218.38;5032878;28;20188;-48
2022/05/21 01:44:38;;;;;;;6.88;3.22;;;;;;;9.27;100.00;101217.09;5032545;28;20198;-49
2022/05/21 01:47:09;;;;;;;8.80;3.22;;;;;;;9.28;100.00;101222.41;5033074;28;20330;-48
2022/05/21 01:49:35;;;;;;;4.63;3.22;;;;;;;9.33;100.00;101219.59;5032859;28;20181;-48
2022/05/21 01:52:02;;;;;;;5.00;3.08;;;;;;;9.35;100.00;101232.94;5032819;28;20196;-48
2022/05/21 01:54:28;;;;;;;8.77;3.33;;;;;;;9.29;100.00;101223.25;5026360;28;20184;-47
2022/05/21 01:56:53;;;;;;;5.88;3.20;;;;;;;9.24;100.00;101231.41;5028533;28;20528;-48
2022/05/21 01:59:19;;;;;;;7.65;3.35;;;;;;;9.32;100.00;101222.34;5017919;28;20185;-48
2022/05/21 02:01:45;;;;;;;4.22;3.05;;;;;;;9.33;100.00;101224.94;5012743;28;20204;-48
2022/05/21 02:04:10;;;;;;;3.83;2.92;;;;;;;9.35;100.00;101217.75;5012213;28;20168;-50
2022/05/21 02:06:35;;;;;;;6.78;3.03;;;;;;;9.30;100.00;101222.38;5012484;28;20198;-49
2022/05/21 02:09:01;;;;;;;3.92;2.92;;;;;;;9.41;100.00;101225.63;5012877;28;20184;-49
2022/05/21 02:11:27;;;;;;;6.70;3.38;;;;;;;9.42;100.00;101222.06;5012456;28;20195;-48
2022/05/21 02:13:52;;;;;;;3.40;2.85;;;;;;;9.38;100.00;101225.72;5011992;28;20176;-49
2022/05/21 02:16:18;;;;;;;4.63;3.50;;;;;;;9.44;100.00;101225.53;5012068;28;20654;-47
2022/05/21 02:18:43;;;;;;;5.18;3.17;;;;;;;9.36;100.00;101238.25;5012326;28;20196;-48
2022/05/21 02:21:09;;;;;;;6.18;3.65;;;;;;;9.40;100.00;101241.69;5012592;28;20208;-50
2022/05/21 02:23:34;;;;;;;6.75;3.42;;;;;;;9.38;100.00;101238.19;5011880;28;20247;-49
2022/05/21 02:26:00;;;;;;;6.20;3.40;;;;;;;9.34;100.00;101232.06;5012392;28;20176;-49
2022/05/21 02:28:27;;;;;;;8.68;3.70;;;;;;;9.27;100.00;101243.81;5023498;28;20180;-48
2022/05/21 02:30:52;;;;;;;4.78;3.75;;;;;;;9.37;100.00;101239.13;5032059;28;20172;-48
2022/05/21 02:33:18;;;;;;;3.67;3.28;;;;;;;9.39;100.00;101247.97;5031190;28;20545;-48
2022/05/21 02:35:43;;;;;;;9.18;3.65;;;;;;;9.36;100.00;101243.59;5031807;28;20176;-49
2022/05/21 02:40:54;;;;;;;3.88;3.20;;;;;;;9.46;100.00;101244.22;5031935;28;20650;-47
2022/05/21 02:43:19;;;;;;;10.52;3.80;;;;;;;9.45;100.00;101242.47;5031377;28;20230;-47
2022/05/21 02:45:46;;;;;;;5.50;3.42;;;;;;;9.49;100.00;101250.38;5031355;28;20222;-49
2022/05/21 02:48:11;;;;;;;7.15;3.60;;;;;;;9.61;100.00;101235.78;5030934;28;20529;-48
2022/05/21 02:50:37;;;;;;;6.65;3.10;;;;;;;9.47;100.00;101243.31;5031423;28;20578;-49
2022/05/21 02:53:08;;;;;;;7.63;3.47;;;;;;;9.46;100.00;101236.19;5030506;28;20346;-47
2022/05/21 02:55:33;;;;;;;4.40;3.38;;;;;;;9.52;100.00;101237.84;5031434;28;20184;-49
2022/05/21 03:01:23;;;;;;;6.88;3.58;;;;;;;9.50;100.00;101243.22;5026969;28;20222;-49
2022/05/21 03:03:49;;;;;;;8.23;3.88;;;;;;;9.58;100.00;101249.25;5012682;28;20264;-47
2022/05/21 03:06:14;;;;;;;7.40;3.95;;;;;;;9.57;100.00;101246.59;5009568;28;20188;-47
2022/05/21 03:11:24;;;;;;;8.82;3.50;;;;;;;9.64;100.00;101237.47;5011453;28;20582;-48
2022/05/21 03:13:49;;;;;;;11.95;4.05;;;;;;;9.69;100.00;101246.28;5010859;28;20177;-48
2022/05/21 03:16:14;;;;;;;7.35;3.60;;;;;;;9.70;100.00;101248.03;5011047;28;20164;-48
2022/05/21 03:18:40;;;;;;;6.75;2.88;;;;;;;9.67;100.00;101245.44;5011380;28;20211;-48
2022/05/21 03:21:05;;;;;;;9.13;3.35;;;;;;;9.66;100.00;101243.66;5010783;28;20593;-47
2022/05/21 03:23:31;;;;;;;9.48;3.17;;;;;;;9.66;100.00;101254.38;5010636;28;20264;-49
2022/05/21 03:25:56;;;;;;;11.05;3.90;;;;;;;9.74;100.00;101239.00;5010851;28;20538;-49
2022/05/21 03:28:22;;;;;;;8.63;3.92;;;;;;;9.71;100.00;101233.75;5020094;28;20172;-48
2022/05/21 03:30:50;;;;;;;8.35;4.00;;;;;;;9.73;100.00;101241.69;5029796;28;20186;-49
2022/05/21 03:33:16;;;;;;;9.95;3.70;;;;;;;9.74;100.00;101228.28;5030374;28;20168;-49
2022/05/21 03:35:42;;;;;;;10.98;3.78;;;;;;;9.82;100.00;101233.44;5030798;28;20283;-48
2022/05/21 03:38:08;;;;;;;8.23;3.45;;;;;;;9.87;100.00;101235.03;5030872;28;20172;-49
2022/05/21 03:40:34;;;;;;;9.52;3.40;;;;;;;9.75;100.00;101232.72;5030699;28;20175;-50
2022/05/21 03:43:00;;;;;;;9.07;3.28;;;;;;;9.82;100.00;101233.44;5030099;28;21021;-48
2022/05/21 03:45:26;;;;;;;9.65;3.38;;;;;;;9.78;100.00;101229.09;5030392;28;20175;-47
2022/05/21 03:47:51;;;;;;;7.35;3.10;;;;;;;9.88;100.00;101234.13;5031101;28;20588;-48
2022/05/21 03:50:20;;;;;;;11.15;3.42;;;;;;;9.82;100.00;101236.97;5030791;28;20257;-50
2022/05/21 03:52:46;;;;;;;6.93;3.00;;;;;;;9.93;100.00;101222.38;5030489;28;20180;-49
2022/05/21 03:55:14;;;;;;;5.20;2.90;;;;;;;9.89;100.00;101222.50;5027482;28;20643;-49
2022/05/21 03:57:40;;;;;;;7.82;3.00;;;;;;;9.92;100.00;101224.19;5019845;28;20185;-51
2022/05/21 04:00:10;;;;;;;6.47;2.50;;;;;;;10.02;100.00;101219.47;5008993;28;20219;-48
2022/05/21 04:02:38;;;;;;;8.40;2.78;;;;;;;9.93;100.00;101219.72;5011156;28;20259;-48
2022/05/21 04:05:05;;;;;;;7.15;2.70;;;;;;;10.05;100.00;101222.03;5009859;28;20224;-48
2022/05/21 04:07:30;;;;;;;9.57;2.72;;;;;;;9.98;100.00;101215.13;5010989;28;20216;-46
2022/05/21 04:09:56;;;;;;;11.18;2.85;;;;;;;10.05;100.00;101219.38;5009169;28;20583;-49
2022/05/21 04:12:21;;;;;;;10.05;3.10;;;;;;;10.14;100.00;101210.19;5010811;28;20206;-49
2022/05/21 04:14:47;;;;;;;9.82;3.00;;;;;;;10.07;100.00;101210.34;5010019;28;20231;-48
2022/05/21 04:17:13;;;;;;;8.07;2.58;;;;;;;10.21;100.00;101195.66;5010675;28;20216;-49
2022/05/21 04:19:42;;;;;;;7.80;2.50;;;;;;;10.21;100.00;101211.75;5010570;28;20219;-49
2022/05/21 04:22:09;;;;;;;7.63;2.60;;;;;;;10.28;100.00;101211.50;5010428;28;20188;-49
2022/05/21 04:24:35;;;;;;;11.07;2.78;;;;;;;10.30;100.00;101199.00;5009837;28;20643;-50
2022/05/21 04:27:00;;;;;;;11.63;2.80;;;;;;;10.41;100.00;101203.16;5010530;28;20250;-48
2022/05/21 04:29:25;;;;;;;13.57;2.60;;;;;;;10.48;100.00;101210.06;5029634;28;20258;-47
2022/05/21 04:31:51;;;;;;;10.25;2.30;;;;;;;10.56;100.00;101202.66;5030115;28;20234;-49
2022/05/21 04:34:16;;;;;;;10.27;2.78;;;;;;;10.52;100.00;101209.91;5029371;28;20196;-47
2022/05/21 04:36:42;;;;;;;12.85;2.38;;;;;;;10.58;100.00;101202.59;5029270;28;20654;-49
2022/05/21 04:39:08;;;;;;;13.35;2.97;;;;;;;10.61;100.00;101208.72;5029700;28;20600;-48
2022/05/21 04:41:34;;;;;;;8.95;2.10;;;;;;;10.67;100.00;101207.63;5028656;28;20245;-47
2022/05/21 04:44:00;;;;;;;5.68;2.05;;;;;;;10.65;100.00;101199.66;5029365;28;20172;-48
2022/05/21 04:46:26;;;;;;;9.80;2.30;;;;;;;10.54;100.00;101207.19;5029475;28;20172;-46
2022/05/21 04:48:52;;;;;;;10.88;2.38;;;;;;;10.62;100.00;101196.19;5029754;28;20596;-46
2022/05/21 04:51:18;;;;;;;11.32;2.25;;;;;;;10.67;100.00;101191.56;5028667;28;20187;-47
2022/05/21 04:53:44;;;;;;;6.80;2.70;;;;;;;10.61;100.00;101199.81;5029246;28;20191;-46
2022/05/21 04:56:10;;;;;;;6.75;2.08;;;;;;;10.66;100.00;101198.72;5028658;28;20168;-49
2022/05/21 04:58:36;;;;;;;9.93;2.58;;;;;;;10.65;100.00;101202.34;5029379;28;20501;-47
2022/05/21 05:01:03;;;;;;;9.10;3.13;;;;;;;10.68;100.00;101186.16;5020107;28;20195;-49
2022/05/21 05:03:29;;;;;;;9.55;2.30;;;;;;;10.65;100.00;101191.63;5013014;28;20191;-49
2022/05/21 05:05:55;;;;;;;10.30;2.28;;;;;;;10.67;100.00;101199.59;5009581;28;20192;-48
2022/05/21 05:08:21;;;;;;;13.07;2.60;;;;;;;10.68;100.00;101206.72;5009534;28;20169;-48
2022/05/21 05:10:47;;;;;;;10.27;2.67;;;;;;;10.68;100.00;101194.19;5012091;28;20557;-48
2022/05/21 05:13:14;;;;;;;9.57;2.70;;;;;;;10.62;100.00;101199.75;5013375;28;20201;-48
2022/05/21 05:15:41;;;;;;;4.47;2.13;;;;;;;10.58;100.00;101199.91;5013736;28;20255;-48
2022/05/21 05:18:12;;;;;;;5.28;2.20;;;;;;;10.68;100.00;101193.31;5013661;28;20596;-47
2022/05/21 05:20:38;;;;;;;9.73;2.25;;;;;;;10.70;100.00;101197.69;5013841;28;20181;-49
2022/05/21 05:23:04;;;;;;;14.00;2.78;;;;;;;10.71;100.00;101206.63;5012881;28;20670;-50
2022/05/21 05:25:30;;;;;;;10.02;2.65;;;;;;;10.62;100.00;101209.59;5013577;28;20208;-47
2022/05/21 05:27:55;;;;;;;9.38;2.60;;;;;;;10.64;100.00;101203.25;5019291;28;20608;-50
2022/05/21 05:30:23;;;;;;;13.57;3.03;;;;;;;10.58;100.00;101214.16;5032606;28;20184;-48
2022/05/21 05:32:49;;;;;;;9.40;2.35;;;;;;;10.60;100.00;101203.41;5033183;28;20568;-48
2022/05/21 05:35:15;;;;;;;13.43;2.67;;;;;;;10.54;100.00;101193.78;5032388;28;20283;-50
2022/05/21 05:37:40;;;;;;;7.50;2.42;;;;;;;10.57;100.00;101193.69;5033236;28;20635;-49
2022/05/21 05:40:08;;;;;;;8.85;2.50;;;;;;;10.63;100.00;101197.97;5033038;28;20203;-50
2022/05/21 05:42:38;;;;;;;12.25;2.60;;;;;;;10.70;100.00;101208.41;5032752;28;20196;-48
2022/05/21 05:45:07;;;;;;;10.57;3.22;;;;;;;10.70;100.00;101192.34;5032362;28;20523;-48
2022/05/21 05:47:33;;;;;;;9.05;3.10;;;;;;;10.61;100.00;101181.94;5032915;28;20180;-48
2022/05/21 05:49:59;;;;;;;11.82;3.30;;;;;;;10.62;100.00;101180.13;5032727;28;20186;-49
2022/05/21 05:52:25;;;;;;;8.63;2.92;;;;;;;10.76;100.00;101183.25;5031287;28;20184;-48
2022/05/21 05:54:51;;;;;;;10.63;3.70;;;;;;;10.72;100.00;101187.81;5032308;28;20194;-48
2022/05/21 05:57:17;;;;;;;9.13;3.40;;;;;;;10.72;100.00;101190.50;5032782;28;20172;-49
2022/05/21 05:59:48;;;;;;;10.18;3.60;;;;;;;10.71;100.00;101183.41;5032639;28;20196;-48
2022/05/21 06:05:14;;;;;;;9.25;5.05;;;;;;;10.71;100.00;101185.16;5029128;28;20205;-49
2022/05/21 06:07:45;;;;;;;10.85;5.35;;;;;;;10.77;100.00;101184.97;5032026;28;20178;-49
2022/05/21 06:10:12;;;;;;;12.23;5.60;;;;;;;10.81;100.00;101191.13;5027814;28;20179;-47
2022/05/21 06:12:38;;;;;;;9.77;5.57;;;;;;;10.78;100.00;101183.16;5012553;28;20191;-47
2022/05/21 06:15:04;;;;;;;8.00;4.70;;;;;;;10.96;100.00;101177.19;5011846;28;20196;-49
2022/05/21 06:17:29;;;;;;;9.73;5.40;;;;;;;10.80;100.00;101184.91;5012483;28;20667;-48
2022/05/21 06:19:55;;;;;;;10.27;5.13;;;;;;;10.91;100.00;101181.81;5012682;28;20204;-49
2022/05/21 06:22:20;;;;;;;8.90;5.15;;;;;;;10.89;100.00;101181.91;5011789;28;20185;-44
2022/05/21 06:24:46;;;;;;;10.95;5.38;;;;;;;11.00;100.00;101177.94;5012318;28;20177;-46
2022/05/21 06:27:11;;;;;;;12.02;6.00;;;;;;;11.04;100.00;101174.25;5012687;28;20153;-49
2022/05/21 06:29:37;;;;;;;10.93;5.75;;;;;;;11.09;100.00;101175.84;5012583;28;20192;-44
2022/05/21 06:32:04;;;;;;;10.82;5.80;;;;;;;11.20;100.00;101164.75;5012300;28;20181;-45
2022/05/21 06:34:29;;;;;;;8.25;5.70;;;;;;;11.33;100.00;101170.56;5012542;28;20171;-48
2022/05/21 06:36:55;;;;;;;10.50;5.60;;;;;;;11.45;100.00;101172.78;5012329;28;20251;-48
2022/05/21 06:39:20;;;;;;;9.43;6.18;;;;;;;11.53;100.00;101170.69;5012213;28;20557;-46
2022/05/21 06:41:48;;;;;;;12.95;5.78;;;;;;;11.59;100.00;101174.06;5012285;28;20662;-46
2022/05/21 06:44:14;;;;;;;9.77;5.55;;;;;;;11.60;100.00;101165.09;5010921;28;20176;-48
2022/05/21 06:46:39;;;;;;;15.02;6.47;;;;;;;11.62;100.00;101169.47;5012570;28;20172;-46
2022/05/21 06:49:05;;;;;;;7.22;5.93;;;;;;;11.80;100.00;101177.78;5011967;28;20169;-48
2022/05/21 06:51:30;;;;;;;10.02;6.45;;;;;;;11.85;100.00;101168.63;5012343;28;20200;-47
2022/05/21 06:53:55;;;;;;;9.73;6.05;;;;;;;11.93;100.00;101163.84;4994700;28;20196;-48
2022/05/21 06:56:21;;;;;;;7.78;5.97;;;;;;;11.97;100.00;101161.06;5011909;28;20169;-47
2022/05/21 06:58:46;;;;;;;9.10;5.85;;;;;;;11.99;100.00;101161.88;5012223;28;20288;-50
2022/05/21 07:01:12;;;;;;;6.78;6.07;;;;;;;12.05;100.00;101161.66;5011922;28;20676;-47
2022/05/21 07:03:38;;;;;;;7.97;5.82;;;;;;;12.11;100.00;101166.75;5012009;28;20670;-46
2022/05/21 07:08:48;;;;;;;7.72;6.07;;;;;;;12.12;100.00;101171.19;5011822;28;20577;-46
2022/05/21 07:11:14;;;;;;;10.02;6.40;;;;;;;12.09;100.00;101172.22;5011986;28;20205;-45
2022/05/21 07:13:40;;;;;;;10.43;6.72;;;;;;;12.11;100.00;101167.66;5010586;28;20165;-43
2022/05/21 07:16:06;;;;;;;12.40;6.75;;;;;;;12.18;100.00;101162.91;5010546;28;20179;-45
2022/05/21 07:18:32;;;;;;;8.02;6.60;;;;;;;12.47;100.00;101158.19;5011980;28;20244;-45
2022/05/21 07:20:58;;;;;;;9.00;6.65;;;;;;;12.61;100.00;101150.41;5011439;28;20172;-48
2022/05/21 07:23:27;;;;;;;10.60;6.40;;;;;;;12.73;100.00;101157.97;5012003;28;20537;-50
2022/05/21 07:25:55;;;;;;;9.38;6.05;;;;;;;12.74;100.00;101156.16;5010217;28;20220;-46
2022/05/21 07:28:22;;;;;;;10.55;6.00;;;;;;;12.69;100.00;101166.22;5011128;28;20311;-46
2022/05/21 07:30:58;;;;;;;11.23;6.00;;;;;;;12.65;100.00;101162.78;5026687;28;20653;-49
2022/05/21 07:33:24;;;;;;;9.52;5.60;;;;;;;12.86;100.00;101165.53;5012249;28;20171;-46
2022/05/21 07:35:52;;;;;;;11.85;6.15;;;;;;;12.91;100.00;101159.00;5029824;28;20547;-47
2022/05/21 07:38:18;;;;;;;8.85;5.82;;;;;;;12.92;100.00;101163.44;5027399;28;20179;-45
2022/05/21 07:40:46;;;;;;;9.43;6.18;;;;;;;13.02;100.00;101155.84;5027785;28;20551;-46
2022/05/21 07:43:18;;;;;;;9.30;5.95;;;;;;;13.22;100.00;101152.28;5028335;28;20262;-46
2022/05/21 07:45:44;;;;;;;9.27;6.03;;;;;;;13.30;100.00;101155.53;5028870;28;20164;-47
2022/05/21 07:48:12;;;;;;;9.65;5.85;;;;;;;13.30;100.00;101160.06;5028815;28;20168;-46
2022/05/21 07:50:44;;;;;;;8.63;4.82;;;;;;;13.25;100.00;101148.56;5028771;28;20690;-47
2022/05/21 07:53:11;;;;;;;7.68;4.68;;;;;;;13.57;100.00;101158.81;5011003;28;20187;-46
2022/05/21 07:55:37;;;;;;;8.10;5.00;;;;;;;13.68;100.00;101149.38;5027508;28;20168;-45
2022/05/21 07:58:03;;;;;;;6.70;4.82;;;;;;;13.76;100.00;101152.59;5027223;28;20659;-47
2022/05/21 08:00:29;;;;;;;8.00;4.53;;;;;;;13.85;100.00;101160.22;5028751;28;20195;-48
2022/05/21 08:02:54;;;;;;;8.73;4.47;;;;;;;13.84;100.00;101165.69;5027250;28;20208;-46
2022/05/21 08:05:19;;;;;;;6.53;4.50;;;;;;;13.71;100.00;101165.38;5027421;28;20620;-47
2022/05/21 08:07:50;;;;;;;7.88;5.07;;;;;;;13.67;100.00;101171.88;5029600;28;20459;-46
2022/05/21 08:10:16;;;;;;;11.00;5.20;;;;;;;13.53;100.00;101157.19;5030125;28;20165;-45
2022/05/21 08:12:42;;;;;;;9.32;4.32;;;;;;;13.50;100.00;101175.31;5029235;28;20203;-48
2022/05/21 08:15:09;;;;;;;6.78;4.13;;;;;;;13.30;100.00;101173.53;5029883;28;20176;-46
2022/05/21 08:17:34;;;;;;;10.70;4.38;;;;;;;13.16;100.00;101174.06;5030407;28;20628;-46
2022/05/21 08:20:00;;;;;;;8.57;4.07;;;;;;;13.15;100.00;101167.81;5030377;28;20191;-48
2022/05/21 08:27:55;;;;;;;7.30;3.20;;;;;;;13.41;100.00;101182.00;5030132;28;20164;-46
2022/05/21 08:30:21;;;;;;;10.50;3.25;;;;;;;13.27;100.00;101177.19;5030238;28;20183;-46
2022/05/21 08:32:46;;;;;;;12.20;3.33;;;;;;;13.47;99.71;101189.78;5030211;28;20183;-46
2022/05/21 08:35:12;;;;;;;14.60;3.30;;;;;;;13.68;99.35;101174.47;5029795;28;20258;-44
2022/05/21 08:37:37;;;;;;;9.63;3.30;;;;;;;13.83;98.25;101177.41;5030216;28;20152;-45
2022/05/21 08:40:03;;;;;;;10.80;3.20;;;;;;;13.84;98.42;101182.75;5028961;28;20283;-46
2022/05/21 08:42:39;;;;;;;11.30;2.97;;;;;;;13.72;98.12;101178.78;5029908;28;20191;-48
2022/05/21 08:45:20;;;;;;;9.05;3.15;;;;;;;13.58;98.05;101187.50;5032834;28;20648;-45
2022/05/21 08:47:55;;;;;;;9.38;2.95;;;;;;;13.31;98.75;101186.88;5036657;28;20170;-45
2022/05/21 08:50:23;;;;;;;12.43;3.35;;;;;;;13.37;98.83;101189.31;5036521;28;20219;-46
2022/05/21 08:53:11;;;;;;;10.98;3.47;;;;;;;13.35;99.38;101185.81;5036299;28;20187;-44
2022/05/21 08:55:44;;;;;;;9.63;2.78;;;;;;;13.58;97.80;101192.00;5036714;28;20191;-43
2022/05/21 08:58:14;;;;;;;8.85;2.38;;;;;;;13.74;97.14;101194.88;5036496;28;20249;-48
2022/05/21 09:00:46;;;;;;;6.80;2.67;;;;;;;13.75;96.46;101205.59;5036399;28;20658;-46
2022/05/21 09:03:17;;;;;;;8.00;2.53;;;;;;;13.98;96.32;101184.78;5036679;28;20223;-43
2022/05/21 09:05:47;;;;;;;8.85;2.47;;;;;;;14.35;94.81;101199.22;5035769;28;20654;-46
2022/05/21 09:08:36;;;;;;;7.22;2.80;;;;;;;14.52;94.00;101188.50;5036618;28;20164;-47
2022/05/21 09:11:12;;;;;;;9.20;3.00;;;;;;;14.75;93.29;101203.53;5036360;28;20175;-46
2022/05/21 09:13:44;;;;;;;9.85;2.70;;;;;;;14.22;92.69;101199.78;5036375;28;20179;-48
2022/05/21 09:19:00;;;;;;;8.32;2.60;;;;;;;13.94;92.74;101204.72;5036271;28;20204;-44
2022/05/21 09:21:27;;;;;;;5.93;2.15;;;;;;;13.84;92.18;101189.94;5036223;28;20191;-47
2022/05/21 09:23:58;;;;;;;8.35;2.78;;;;;;;14.07;93.20;101194.25;5036219;28;20168;-45
2022/05/21 09:26:45;;;;;;;5.75;2.50;;;;;;;14.86;91.43;101186.81;5036430;28;20249;-44
2022/05/21 09:29:31;;;;;;;8.07;2.70;;;;;;;15.59;89.47;101201.06;5036545;28;20167;-48
2022/05/21 09:31:57;;;;;;;5.55;2.38;;;;;;;15.35;89.07;101202.31;5036177;28;20206;-47
2022/05/21 09:34:30;;;;;;;5.80;2.25;;;;;;;15.22;88.00;101200.28;5036169;28;20653;-46
2022/05/21 09:36:57;;;;;;;9.05;2.35;;;;;;;15.04;88.28;101210.19;5036264;28;20168;-47
2022/05/21 09:39:40;;;;;;;7.90;2.72;;;;;;;14.53;89.76;101211.78;5036343;28;20191;-46
2022/05/21 09:45:24;;;;;;;9.25;2.30;;;;;;;13.58;94.59;101233.25;5036200;28;20168;-46
2022/05/21 09:48:10;;;;;;;8.82;2.30;;;;;;;13.42;95.83;101240.25;5036246;28;20166;-47
2022/05/21 09:51:02;;;;;;;8.25;2.80;;;;;;;14.60;96.85;101239.38;5035905;28;20184;-45
2022/05/21 09:53:36;;;;;;;8.18;2.75;;;;;;;14.29;95.77;101231.84;5033248;28;20211;-48
2022/05/21 09:56:09;;;;;;;8.52;2.97;;;;;;;14.35;95.90;101229.72;5034299;28;20199;-47
2022/05/21 09:58:39;;;;;;;6.10;2.22;;;;;;;14.25;94.25;101230.25;5032896;28;20239;-47
2022/05/21 10:01:06;;;;;;;9.20;2.90;;;;;;;14.60;92.73;101226.75;5032662;28;20176;-47
2022/05/21 10:03:50;;;;;;;7.78;2.67;;;;;;;15.00;91.66;101227.50;5032820;28;20639;-46
2022/05/21 10:06:27;;;;;;;6.75;2.72;;;;;;;15.71;91.12;101228.34;5032610;28;20602;-45
2022/05/21 10:12:00;;;;;;;8.05;2.88;;;;;;;14.89;89.09;101245.16;5032722;28;20207;-49
2022/05/21 10:14:46;;;;;;;10.85;2.88;;;;;;;14.76;89.06;101237.69;5032340;28;20208;-46
2022/05/21 10:17:49;;;;;;;7.47;2.72;;;;;;;14.70;91.09;101240.66;5032748;28;20168;-45
2022/05/21 10:20:26;;;;;;;6.68;2.65;;;;;;;14.34;91.01;101245.97;4971022;28;20229;-48
2022/05/21 10:23:10;;;;;;;6.55;2.65;;;;;;;14.71;91.82;101253.19;5025648;28;20215;-45
2022/05/21 10:26:14;;;;;;;7.45;2.30;;;;;;;15.70;89.56;101248.19;5032352;28;20231;-47
2022/05/21 10:29:17;;;;;;;7.70;2.10;;;;;;;15.26;85.69;101252.25;5032458;28;20174;-46
2022/05/21 10:32:30;;;;;;;6.35;2.30;;;;;;;15.22;86.72;101262.34;5032104;28;20232;-47
2022/05/21 10:35:33;;;;;;;5.90;1.95;;;;;;;14.86;85.77;101264.19;5023741;28;20202;-45
2022/05/21 10:38:02;;;;;;;6.55;2.20;;;;;;;14.45;86.11;101258.94;5031970;28;20318;-47
2022/05/21 10:40:46;;;;;;;5.00;2.10;;;;;;;14.46;87.40;101282.28;5047283;28;20199;-46
2022/05/21 10:43:35;;;;;;;7.43;1.90;;;;;;;14.34;87.83;101276.53;5031990;28;20269;-47
2022/05/21 10:46:35;;;;;;;8.23;2.28;;;;;;;14.56;87.92;101289.00;5032016;28;20183;-45
2022/05/21 10:49:23;;;;;;;5.47;2.17;;;;;;;14.75;86.24;101287.16;5047748;28;20480;-46
2022/05/21 10:52:04;;;;;;;7.28;2.38;;;;;;;14.66;85.67;101282.22;5031924;28;20183;-45
2022/05/21 10:54:55;;;;;;;3.97;1.85;;;;;;;15.03;84.62;101270.50;5032005;28;20234;-47
2022/05/21 10:57:27;;;;;;;7.43;1.88;;;;;;;14.86;84.08;101291.19;5032038;28;20160;-45
2022/05/21 11:00:18;;;;;;;10.35;1.90;;;;;;;14.70;84.40;101299.16;5031831;28;20192;-46
2022/05/21 11:03:24;;;;;;;8.13;1.92;;;;;;;14.32;82.92;101309.84;5031528;28;20511;-45
2022/05/21 11:06:15;;;;;;;4.97;1.75;;;;;;;14.18;84.35;101305.97;5023240;28;20269;-43
2022/05/21 11:09:14;;;;;;;11.05;1.92;;;;;;;14.30;83.98;101318.03;5031157;28;20259;-45
2022/05/21 11:12:04;;;;;;;7.70;1.80;;;;;;;14.52;84.09;101327.78;5031652;28;20289;-44
2022/05/21 11:14:38;;;;;;;4.60;1.42;;;;;;;14.26;83.83;101334.41;5031548;28;20167;-46
2022/05/21 11:17:25;;;;;;;7.22;1.70;;;;;;;14.15;83.91;101327.69;5031611;28;20163;-46
2022/05/21 11:19:58;;;;;;;4.97;1.92;;;;;;;14.04;84.90;101323.69;5046486;28;20212;-48
2022/05/21 11:22:32;;;;;;;6.25;1.70;;;;;;;14.19;86.19;101326.59;5031627;28;20215;-46
2022/05/21 11:25:27;;;;;;;9.23;2.30;;;;;;;14.95;84.46;101333.88;5031595;28;20242;-45
2022/05/21 11:28:40;;;;;;;8.35;1.90;;;;;;;15.44;81.79;101332.34;5024621;28;20645;-45
2022/05/21 11:31:17;;;;;;;11.55;2.50;;;;;;;15.37;80.91;101330.00;5011757;28;20181;-48
2022/05/21 11:39:19;;;;;;;11.13;2.38;;;;;;;15.76;80.15;101345.19;5011041;28;20193;-46
2022/05/21 11:42:08;;;;;;;6.95;1.80;;;;;;;15.78;79.14;101346.84;5011389;28;20193;-46
2022/05/21 11:44:55;;;;;;;5.57;1.77;;;;;;;15.74;78.37;101349.78;5011055;28;20227;-46
2022/05/21 11:47:21;;;;;;;6.82;1.85;;;;;;;15.75;77.08;101341.59;5011644;28;20627;-46
2022/05/21 11:49:53;;;;;;;4.20;1.42;;;;;;;15.62;76.75;101357.53;5011108;28;20165;-47
2022/05/21 11:52:27;;;;;;;7.93;2.20;;;;;;;15.08;77.86;101363.84;5011145;28;20564;-48
2022/05/21 11:55:11;;;;;;;8.02;2.00;;;;;;;15.04;78.50;101360.41;5011192;28;20168;-47
2022/05/21 11:57:42;;;;;;;4.43;1.45;;;;;;;14.87;79.59;101381.94;5010849;28;20640;-47
2022/05/21 12:00:17;;;;;;;5.18;2.08;;;;;;;14.65;81.62;101373.97;5009820;28;20418;-44
2022/05/21 12:02:55;;;;;;;7.57;1.90;;;;;;;14.89;81.35;101371.94;5010632;28;20569;-48
2022/05/21 12:05:41;;;;;;;12.43;2.13;;;;;;;15.44;79.60;101370.16;5010801;28;20250;-47
2022/05/21 12:08:29;;;;;;;5.70;1.90;;;;;;;15.34;78.17;101376.94;5010757;28;20559;-46
2022/05/21 12:11:06;;;;;;;8.05;2.13;;;;;;;15.17;78.41;101372.38;5010809;28;20215;-45